sensor_id;sensor_type;location;lat;lon;timestamp;temperature;humidity
24682;DHT22;12802;53.390;-2.328;2023-04-05T00:01:32;8.90;99.90
24682;DHT22;12802;53.390;-2.328;2023-04-05T00:03:59;8.80;99.90
24682;DHT22;12802;53.390;-2.328;2023-04-05T00:06:29;8.80;99.90
24682;DHT22;12802;53.390;-2.328;2023-04-05T00:08:58;8.80;99.90
24682;DHT22;12802;53.390;-2.328;2023-04-05T00:11:28;8.90;99.90
24682;DHT22;12802;53.390;-2.328;2023-04-05T00:14:01;8.80;99.90
24682;DHT22;12802;53.390;-2.328;2023-04-05T00:16:28;8.80;99.90
24682;DHT22;12802;53.390;-2.328;2023-04-05T00:18:57;8.80;99.90
24682;DHT22;12802;53.390;-2.328;2023-04-05T00:21:25;8.70;99.90
24682;DHT22;12802;53.390;-2.328;2023-04-05T00:23:55;8.60;99.90
24682;DHT22;12802;53.390;-2.328;2023-04-05T00:26:23;8.60;99.90
24682;DHT22;12802;53.390;-2.328;2023-04-05T00:28:53;8.50;99.90
24682;DHT22;12802;53.390;-2.328;2023-04-05T00:31:19;8.50;99.90
24682;DHT22;12802;53.390;-2.328;2023-04-05T00:33:46;8.50;99.90
24682;DHT22;12802;53.390;-2.328;2023-04-05T00:36:17;8.50;99.90
24682;DHT22;12802;53.390;-2.328;2023-04-05T00:38:45;8.50;99.90
24682;DHT22;12802;53.390;-2.328;2023-04-05T00:41:11;8.50;99.90
24682;DHT22;12802;53.390;-2.328;2023-04-05T00:43:37;8.60;99.90
24682;DHT22;12802;53.390;-2.328;2023-04-05T00:46:05;8.60;99.90
24682;DHT22;12802;53.390;-2.328;2023-04-05T00:48:31;8.50;99.90
24682;DHT22;12802;53.390;-2.328;2023-04-05T00:50:57;8.50;99.90
24682;DHT22;12802;53.390;-2.328;2023-04-05T00:53:24;8.60;99.90
24682;DHT22;12802;53.390;-2.328;2023-04-05T00:55:54;8.60;99.90
24682;DHT22;12802;53.390;-2.328;2023-04-05T00:58:21;8.60;99.90
24682;DHT22;12802;53.390;-2.328;2023-04-05T01:01:03;8.60;99.90
24682;DHT22;12802;53.390;-2.328;2023-04-05T01:03:34;8.60;99.90
24682;DHT22;12802;53.390;-2.328;2023-04-05T01:06:08;8.60;99.90
24682;DHT22;12802;53.390;-2.328;2023-04-05T01:08:51;8.50;99.90
24682;DHT22;12802;53.390;-2.328;2023-04-05T01:11:21;8.40;99.90
24682;DHT22;12802;53.390;-2.328;2023-04-05T01:13:48;8.40;99.90
24682;DHT22;12802;53.390;-2.328;2023-04-05T01:16:14;8.40;99.90
24682;DHT22;12802;53.390;-2.328;2023-04-05T01:18:40;8.40;99.90
24682;DHT22;12802;53.390;-2.328;2023-04-05T01:24:12;8.50;99.90
24682;DHT22;12802;53.390;-2.328;2023-04-05T01:32:27;8.50;99.90
24682;DHT22;12802;53.390;-2.328;2023-04-05T01:37:58;8.50;99.90
24682;DHT22;12802;53.390;-2.328;2023-04-05T01:40:25;8.50;99.90
24682;DHT22;12802;53.390;-2.328;2023-04-05T01:42:50;8.50;99.90
24682;DHT22;12802;53.390;-2.328;2023-04-05T01:45:16;8.50;99.90
24682;DHT22;12802;53.390;-2.328;2023-04-05T01:47:42;8.50;99.90
24682;DHT22;12802;53.390;-2.328;2023-04-05T01:50:08;8.40;99.90
24682;DHT22;12802;53.390;-2.328;2023-04-05T01:52:34;8.40;99.90
24682;DHT22;12802;53.390;-2.328;2023-04-05T01:55:00;8.40;99.90
24682;DHT22;12802;53.390;-2.328;2023-04-05T01:57:25;8.40;99.90
24682;DHT22;12802;53.390;-2.328;2023-04-05T01:59:51;8.40;99.90
24682;DHT22;12802;53.390;-2.328;2023-04-05T02:02:17;8.30;99.90
24682;DHT22;12802;53.390;-2.328;2023-04-05T02:04:43;8.40;99.90
24682;DHT22;12802;53.390;-2.328;2023-04-05T02:07:08;8.30;99.90
24682;DHT22;12802;53.390;-2.328;2023-04-05T02:09:34;8.40;99.90
24682;DHT22;12802;53.390;-2.328;2023-04-05T02:12:00;8.30;99.90
24682;DHT22;12802;53.390;-2.328;2023-04-05T02:14:26;8.30;99.90
24682;DHT22;12802;53.390;-2.328;2023-04-05T02:16:51;8.40;99.90
24682;DHT22;12802;53.390;-2.328;2023-04-05T02:19:21;8.30;99.90
24682;DHT22;12802;53.390;-2.328;2023-04-05T02:21:48;8.40;99.90
24682;DHT22;12802;53.390;-2.328;2023-04-05T02:24:14;8.40;99.90
24682;DHT22;12802;53.390;-2.328;2023-04-05T02:26:40;8.40;99.90
24682;DHT22;12802;53.390;-2.328;2023-04-05T02:29:05;8.30;99.90
24682;DHT22;12802;53.390;-2.328;2023-04-05T02:31:32;8.30;99.90
24682;DHT22;12802;53.390;-2.328;2023-04-05T02:33:58;8.30;99.90
24682;DHT22;12802;53.390;-2.328;2023-04-05T02:36:25;8.30;99.90
24682;DHT22;12802;53.390;-2.328;2023-04-05T02:38:53;8.40;99.90
24682;DHT22;12802;53.390;-2.328;2023-04-05T02:41:19;8.30;99.90
24682;DHT22;12802;53.390;-2.328;2023-04-05T02:43:46;8.30;99.90
24682;DHT22;12802;53.390;-2.328;2023-04-05T02:46:12;8.40;99.90
24682;DHT22;12802;53.390;-2.328;2023-04-05T02:48:40;8.30;99.90
24682;DHT22;12802;53.390;-2.328;2023-04-05T02:51:07;8.40;99.90
24682;DHT22;12802;53.390;-2.328;2023-04-05T02:53:33;8.30;99.90
24682;DHT22;12802;53.390;-2.328;2023-04-05T02:56:03;8.30;99.90
24682;DHT22;12802;53.390;-2.328;2023-04-05T02:58:32;8.30;99.90
24682;DHT22;12802;53.390;-2.328;2023-04-05T03:00:59;8.40;99.90
24682;DHT22;12802;53.390;-2.328;2023-04-05T03:03:30;8.50;99.90
24682;DHT22;12802;53.390;-2.328;2023-04-05T03:06:01;8.50;99.90
24682;DHT22;12802;53.390;-2.328;2023-04-05T03:08:42;8.50;99.90
24682;DHT22;12802;53.390;-2.328;2023-04-05T03:11:15;8.50;99.90
24682;DHT22;12802;53.390;-2.328;2023-04-05T03:13:46;8.50;99.90
24682;DHT22;12802;53.390;-2.328;2023-04-05T03:16:20;8.50;99.90
24682;DHT22;12802;53.390;-2.328;2023-04-05T03:18:48;8.50;99.90
24682;DHT22;12802;53.390;-2.328;2023-04-05T03:21:15;8.50;99.90
24682;DHT22;12802;53.390;-2.328;2023-04-05T03:23:55;8.50;99.90
24682;DHT22;12802;53.390;-2.328;2023-04-05T03:26:26;8.50;99.90
24682;DHT22;12802;53.390;-2.328;2023-04-05T03:28:52;8.50;99.90
24682;DHT22;12802;53.390;-2.328;2023-04-05T03:31:24;8.60;99.90
24682;DHT22;12802;53.390;-2.328;2023-04-05T03:33:53;8.50;99.90
24682;DHT22;12802;53.390;-2.328;2023-04-05T03:36:19;8.50;99.90
24682;DHT22;12802;53.390;-2.328;2023-04-05T03:38:49;8.60;99.90
24682;DHT22;12802;53.390;-2.328;2023-04-05T03:41:19;8.60;99.90
24682;DHT22;12802;53.390;-2.328;2023-04-05T03:43:45;8.60;99.90
24682;DHT22;12802;53.390;-2.328;2023-04-05T03:46:11;8.50;99.90
24682;DHT22;12802;53.390;-2.328;2023-04-05T03:48:37;8.50;99.90
24682;DHT22;12802;53.390;-2.328;2023-04-05T03:51:03;8.50;99.90
24682;DHT22;12802;53.390;-2.328;2023-04-05T03:53:28;8.50;99.90
24682;DHT22;12802;53.390;-2.328;2023-04-05T03:55:55;8.60;99.90
24682;DHT22;12802;53.390;-2.328;2023-04-05T03:58:53;8.60;99.90
24682;DHT22;12802;53.390;-2.328;2023-04-05T04:01:24;8.60;99.90
24682;DHT22;12802;53.390;-2.328;2023-04-05T04:03:50;8.60;99.90
24682;DHT22;12802;53.390;-2.328;2023-04-05T04:06:16;8.60;99.90
24682;DHT22;12802;53.390;-2.328;2023-04-05T04:08:43;8.50;99.90
24682;DHT22;12802;53.390;-2.328;2023-04-05T04:11:08;8.50;99.90
24682;DHT22;12802;53.390;-2.328;2023-04-05T04:13:38;8.50;99.90
24682;DHT22;12802;53.390;-2.328;2023-04-05T04:16:24;8.50;99.90
24682;DHT22;12802;53.390;-2.328;2023-04-05T04:19:08;8.50;99.90
24682;DHT22;12802;53.390;-2.328;2023-04-05T04:21:54;8.50;99.90
24682;DHT22;12802;53.390;-2.328;2023-04-05T04:24:38;8.60;99.90
24682;DHT22;12802;53.390;-2.328;2023-04-05T04:27:29;8.60;99.90
24682;DHT22;12802;53.390;-2.328;2023-04-05T04:30:00;8.70;99.90
24682;DHT22;12802;53.390;-2.328;2023-04-05T04:32:34;8.70;99.90
24682;DHT22;12802;53.390;-2.328;2023-04-05T04:35:33;8.70;99.90
24682;DHT22;12802;53.390;-2.328;2023-04-05T04:38:21;8.70;99.90
24682;DHT22;12802;53.390;-2.328;2023-04-05T04:41:13;8.70;99.90
24682;DHT22;12802;53.390;-2.328;2023-04-05T04:43:48;8.60;99.90
24682;DHT22;12802;53.390;-2.328;2023-04-05T04:46:29;8.60;99.90
24682;DHT22;12802;53.390;-2.328;2023-04-05T04:49:09;8.60;99.90
24682;DHT22;12802;53.390;-2.328;2023-04-05T04:51:38;8.50;99.90
24682;DHT22;12802;53.390;-2.328;2023-04-05T04:54:04;8.50;99.90
24682;DHT22;12802;53.390;-2.328;2023-04-05T04:56:30;8.40;99.90
24682;DHT22;12802;53.390;-2.328;2023-04-05T04:58:58;8.40;99.90
24682;DHT22;12802;53.390;-2.328;2023-04-05T05:01:23;8.40;99.90
24682;DHT22;12802;53.390;-2.328;2023-04-05T05:03:51;8.30;99.90
24682;DHT22;12802;53.390;-2.328;2023-04-05T05:06:24;8.30;99.90
24682;DHT22;12802;53.390;-2.328;2023-04-05T05:08:51;8.40;99.90
24682;DHT22;12802;53.390;-2.328;2023-04-05T05:11:17;8.30;99.90
24682;DHT22;12802;53.390;-2.328;2023-04-05T05:13:43;8.30;99.90
24682;DHT22;12802;53.390;-2.328;2023-04-05T05:16:16;8.30;99.90
24682;DHT22;12802;53.390;-2.328;2023-04-05T05:18:42;8.30;99.90
24682;DHT22;12802;53.390;-2.328;2023-04-05T05:21:09;8.30;99.90
24682;DHT22;12802;53.390;-2.328;2023-04-05T05:23:35;8.30;99.90
24682;DHT22;12802;53.390;-2.328;2023-04-05T05:26:02;8.40;99.90
24682;DHT22;12802;53.390;-2.328;2023-04-05T05:28:27;8.40;99.90
24682;DHT22;12802;53.390;-2.328;2023-04-05T05:30:53;8.40;99.90
24682;DHT22;12802;53.390;-2.328;2023-04-05T05:33:19;8.40;99.90
24682;DHT22;12802;53.390;-2.328;2023-04-05T05:35:48;8.40;99.90
24682;DHT22;12802;53.390;-2.328;2023-04-05T05:38:16;8.40;99.90
24682;DHT22;12802;53.390;-2.328;2023-04-05T05:40:42;8.40;99.90
24682;DHT22;12802;53.390;-2.328;2023-04-05T05:43:08;8.40;99.90
24682;DHT22;12802;53.390;-2.328;2023-04-05T05:45:35;8.40;99.90
24682;DHT22;12802;53.390;-2.328;2023-04-05T05:48:01;8.40;99.90
24682;DHT22;12802;53.390;-2.328;2023-04-05T05:50:27;8.40;99.90
24682;DHT22;12802;53.390;-2.328;2023-04-05T05:52:58;8.50;99.90
24682;DHT22;12802;53.390;-2.328;2023-04-05T05:55:24;8.50;99.90
24682;DHT22;12802;53.390;-2.328;2023-04-05T05:57:49;8.50;99.90
24682;DHT22;12802;53.390;-2.328;2023-04-05T06:00:18;8.50;99.90
24682;DHT22;12802;53.390;-2.328;2023-04-05T06:02:44;8.50;99.90
24682;DHT22;12802;53.390;-2.328;2023-04-05T06:05:10;8.60;99.90
24682;DHT22;12802;53.390;-2.328;2023-04-05T06:07:36;8.60;99.90
24682;DHT22;12802;53.390;-2.328;2023-04-05T06:10:03;8.60;99.90
24682;DHT22;12802;53.390;-2.328;2023-04-05T06:12:30;8.60;99.90
24682;DHT22;12802;53.390;-2.328;2023-04-05T06:14:55;8.60;99.90
24682;DHT22;12802;53.390;-2.328;2023-04-05T06:17:21;8.60;99.90
24682;DHT22;12802;53.390;-2.328;2023-04-05T06:19:47;8.70;99.90
24682;DHT22;12802;53.390;-2.328;2023-04-05T06:22:12;8.70;99.90
24682;DHT22;12802;53.390;-2.328;2023-04-05T06:24:38;8.60;99.90
24682;DHT22;12802;53.390;-2.328;2023-04-05T06:27:04;8.70;99.90
24682;DHT22;12802;53.390;-2.328;2023-04-05T06:29:30;8.60;99.90
24682;DHT22;12802;53.390;-2.328;2023-04-05T06:31:56;8.60;99.90
24682;DHT22;12802;53.390;-2.328;2023-04-05T06:34:21;8.70;99.90
24682;DHT22;12802;53.390;-2.328;2023-04-05T06:36:47;8.70;99.90
24682;DHT22;12802;53.390;-2.328;2023-04-05T06:39:13;8.70;99.90
24682;DHT22;12802;53.390;-2.328;2023-04-05T06:41:39;8.70;99.90
24682;DHT22;12802;53.390;-2.328;2023-04-05T06:44:05;8.70;99.90
24682;DHT22;12802;53.390;-2.328;2023-04-05T06:46:31;8.80;99.90
24682;DHT22;12802;53.390;-2.328;2023-04-05T06:48:57;8.80;99.90
24682;DHT22;12802;53.390;-2.328;2023-04-05T06:51:23;8.80;99.90
24682;DHT22;12802;53.390;-2.328;2023-04-05T06:53:50;8.80;99.90
24682;DHT22;12802;53.390;-2.328;2023-04-05T06:56:16;8.90;99.90
24682;DHT22;12802;53.390;-2.328;2023-04-05T06:58:41;8.80;99.90
24682;DHT22;12802;53.390;-2.328;2023-04-05T07:01:08;8.80;99.90
24682;DHT22;12802;53.390;-2.328;2023-04-05T07:03:34;8.80;99.90
24682;DHT22;12802;53.390;-2.328;2023-04-05T07:06:00;8.90;99.90
24682;DHT22;12802;53.390;-2.328;2023-04-05T07:08:28;8.90;99.90
24682;DHT22;12802;53.390;-2.328;2023-04-05T07:10:53;8.80;99.90
24682;DHT22;12802;53.390;-2.328;2023-04-05T07:13:21;8.90;99.90
24682;DHT22;12802;53.390;-2.328;2023-04-05T07:15:47;8.90;99.90
24682;DHT22;12802;53.390;-2.328;2023-04-05T07:18:13;8.90;99.90
24682;DHT22;12802;53.390;-2.328;2023-04-05T07:20:43;9.00;99.90
24682;DHT22;12802;53.390;-2.328;2023-04-05T07:23:09;9.00;99.90
24682;DHT22;12802;53.390;-2.328;2023-04-05T07:25:34;9.00;99.90
24682;DHT22;12802;53.390;-2.328;2023-04-05T07:28:00;9.00;99.90
24682;DHT22;12802;53.390;-2.328;2023-04-05T07:30:26;9.00;99.90
24682;DHT22;12802;53.390;-2.328;2023-04-05T07:32:53;9.00;99.90
24682;DHT22;12802;53.390;-2.328;2023-04-05T07:35:18;9.00;99.90
24682;DHT22;12802;53.390;-2.328;2023-04-05T07:37:44;9.00;99.90
24682;DHT22;12802;53.390;-2.328;2023-04-05T07:40:10;9.00;99.90
24682;DHT22;12802;53.390;-2.328;2023-04-05T07:42:37;9.00;99.90
24682;DHT22;12802;53.390;-2.328;2023-04-05T07:45:04;9.10;99.90
24682;DHT22;12802;53.390;-2.328;2023-04-05T07:47:32;9.10;99.90
24682;DHT22;12802;53.390;-2.328;2023-04-05T07:49:59;9.10;99.90
24682;DHT22;12802;53.390;-2.328;2023-04-05T07:52:25;9.10;99.90
24682;DHT22;12802;53.390;-2.328;2023-04-05T07:54:50;9.10;99.90
24682;DHT22;12802;53.390;-2.328;2023-04-05T07:57:17;9.10;99.90
24682;DHT22;12802;53.390;-2.328;2023-04-05T07:59:43;9.10;99.90
24682;DHT22;12802;53.390;-2.328;2023-04-05T08:02:08;9.10;99.90
24682;DHT22;12802;53.390;-2.328;2023-04-05T08:04:34;9.10;99.90
24682;DHT22;12802;53.390;-2.328;2023-04-05T08:07:00;9.10;99.90
24682;DHT22;12802;53.390;-2.328;2023-04-05T08:09:26;9.10;99.90
24682;DHT22;12802;53.390;-2.328;2023-04-05T08:11:52;9.10;99.90
24682;DHT22;12802;53.390;-2.328;2023-04-05T08:14:17;9.10;99.90
24682;DHT22;12802;53.390;-2.328;2023-04-05T08:16:43;9.10;99.90
24682;DHT22;12802;53.390;-2.328;2023-04-05T08:19:18;9.10;99.90
24682;DHT22;12802;53.390;-2.328;2023-04-05T08:21:46;9.10;99.90
24682;DHT22;12802;53.390;-2.328;2023-04-05T08:24:12;9.10;99.90
24682;DHT22;12802;53.390;-2.328;2023-04-05T08:26:38;9.10;99.90
24682;DHT22;12802;53.390;-2.328;2023-04-05T08:29:04;9.00;99.90
24682;DHT22;12802;53.390;-2.328;2023-04-05T08:31:29;9.00;99.90
24682;DHT22;12802;53.390;-2.328;2023-04-05T08:33:55;9.10;99.90
24682;DHT22;12802;53.390;-2.328;2023-04-05T08:36:21;9.00;99.90
24682;DHT22;12802;53.390;-2.328;2023-04-05T08:38:47;9.10;99.90
24682;DHT22;12802;53.390;-2.328;2023-04-05T08:41:22;9.00;99.90
24682;DHT22;12802;53.390;-2.328;2023-04-05T08:43:55;9.00;99.90
24682;DHT22;12802;53.390;-2.328;2023-04-05T08:46:26;9.10;99.90
24682;DHT22;12802;53.390;-2.328;2023-04-05T08:48:52;9.10;99.90
24682;DHT22;12802;53.390;-2.328;2023-04-05T08:51:19;9.00;99.90
24682;DHT22;12802;53.390;-2.328;2023-04-05T08:53:46;9.00;99.90
24682;DHT22;12802;53.390;-2.328;2023-04-05T08:56:17;9.10;99.90
24682;DHT22;12802;53.390;-2.328;2023-04-05T08:59:14;9.20;99.90
24682;DHT22;12802;53.390;-2.328;2023-04-05T09:01:42;9.20;99.90
24682;DHT22;12802;53.390;-2.328;2023-04-05T09:04:15;9.20;99.90
24682;DHT22;12802;53.390;-2.328;2023-04-05T09:06:43;9.20;99.90
24682;DHT22;12802;53.390;-2.328;2023-04-05T09:09:09;9.20;99.90
24682;DHT22;12802;53.390;-2.328;2023-04-05T09:11:35;9.20;99.90
24682;DHT22;12802;53.390;-2.328;2023-04-05T09:14:05;9.30;99.90
24682;DHT22;12802;53.390;-2.328;2023-04-05T09:16:37;9.30;99.90
24682;DHT22;12802;53.390;-2.328;2023-04-05T09:19:03;9.30;99.90
24682;DHT22;12802;53.390;-2.328;2023-04-05T09:21:30;9.30;99.90
24682;DHT22;12802;53.390;-2.328;2023-04-05T09:24:32;9.40;99.90
24682;DHT22;12802;53.390;-2.328;2023-04-05T09:27:12;9.50;99.90
24682;DHT22;12802;53.390;-2.328;2023-04-05T09:29:39;9.50;99.90
24682;DHT22;12802;53.390;-2.328;2023-04-05T09:32:07;9.60;99.90
24682;DHT22;12802;53.390;-2.328;2023-04-05T09:34:34;9.70;99.90
24682;DHT22;12802;53.390;-2.328;2023-04-05T09:37:18;9.80;99.90
24682;DHT22;12802;53.390;-2.328;2023-04-05T09:39:46;9.80;99.90
24682;DHT22;12802;53.390;-2.328;2023-04-05T09:42:15;9.90;99.90
24682;DHT22;12802;53.390;-2.328;2023-04-05T09:44:54;10.00;99.90
24682;DHT22;12802;53.390;-2.328;2023-04-05T09:47:26;9.90;99.90
24682;DHT22;12802;53.390;-2.328;2023-04-05T09:49:58;9.90;99.90
24682;DHT22;12802;53.390;-2.328;2023-04-05T09:52:31;9.90;99.90
24682;DHT22;12802;53.390;-2.328;2023-04-05T09:54:58;9.90;99.90
24682;DHT22;12802;53.390;-2.328;2023-04-05T09:57:27;10.00;99.90
24682;DHT22;12802;53.390;-2.328;2023-04-05T09:59:55;10.00;99.90
24682;DHT22;12802;53.390;-2.328;2023-04-05T10:02:21;10.10;99.90
24682;DHT22;12802;53.390;-2.328;2023-04-05T10:04:47;10.10;99.90
24682;DHT22;12802;53.390;-2.328;2023-04-05T10:07:16;10.20;99.90
24682;DHT22;12802;53.390;-2.328;2023-04-05T10:09:44;10.20;99.90
24682;DHT22;12802;53.390;-2.328;2023-04-05T10:12:14;10.20;99.90
24682;DHT22;12802;53.390;-2.328;2023-04-05T10:14:42;10.30;99.90
24682;DHT22;12802;53.390;-2.328;2023-04-05T10:20:08;10.30;99.90
24682;DHT22;12802;53.390;-2.328;2023-04-05T10:22:36;10.30;99.90
24682;DHT22;12802;53.390;-2.328;2023-04-05T10:28:35;10.30;99.90
24682;DHT22;12802;53.390;-2.328;2023-04-05T10:33:44;10.40;99.90
24682;DHT22;12802;53.390;-2.328;2023-04-05T10:39:06;10.60;99.90
24682;DHT22;12802;53.390;-2.328;2023-04-05T10:41:41;10.50;99.90
24682;DHT22;12802;53.390;-2.328;2023-04-05T10:44:09;10.60;99.90
24682;DHT22;12802;53.390;-2.328;2023-04-05T10:46:36;10.60;99.90
24682;DHT22;12802;53.390;-2.328;2023-04-05T10:49:16;10.70;99.90
24682;DHT22;12802;53.390;-2.328;2023-04-05T10:51:45;10.60;99.90
24682;DHT22;12802;53.390;-2.328;2023-04-05T10:54:11;10.70;99.90
24682;DHT22;12802;53.390;-2.328;2023-04-05T10:56:38;10.70;99.90
24682;DHT22;12802;53.390;-2.328;2023-04-05T10:59:04;10.70;99.90
24682;DHT22;12802;53.390;-2.328;2023-04-05T11:01:31;10.80;99.90
24682;DHT22;12802;53.390;-2.328;2023-04-05T11:04:13;10.60;99.90
24682;DHT22;12802;53.390;-2.328;2023-04-05T11:06:39;10.40;99.90
24682;DHT22;12802;53.390;-2.328;2023-04-05T11:09:17;10.50;99.90
24682;DHT22;12802;53.390;-2.328;2023-04-05T11:11:45;10.60;99.90
24682;DHT22;12802;53.390;-2.328;2023-04-05T11:14:25;10.50;99.90
24682;DHT22;12802;53.390;-2.328;2023-04-05T11:16:59;10.50;99.90
24682;DHT22;12802;53.390;-2.328;2023-04-05T11:22:13;10.60;99.90
24682;DHT22;12802;53.390;-2.328;2023-04-05T11:24:53;10.60;99.90
24682;DHT22;12802;53.390;-2.328;2023-04-05T11:27:29;10.80;99.90
24682;DHT22;12802;53.390;-2.328;2023-04-05T11:29:56;10.80;99.90
24682;DHT22;12802;53.390;-2.328;2023-04-05T11:32:23;10.70;99.90
24682;DHT22;12802;53.390;-2.328;2023-04-05T11:35:00;10.70;99.90
24682;DHT22;12802;53.390;-2.328;2023-04-05T11:40:30;10.70;99.90
24682;DHT22;12802;53.390;-2.328;2023-04-05T11:43:10;10.70;99.90
24682;DHT22;12802;53.390;-2.328;2023-04-05T11:45:40;10.70;99.90
24682;DHT22;12802;53.390;-2.328;2023-04-05T11:48:10;10.60;99.90
24682;DHT22;12802;53.390;-2.328;2023-04-05T11:50:37;10.60;99.90
24682;DHT22;12802;53.390;-2.328;2023-04-05T11:53:21;10.60;99.90
24682;DHT22;12802;53.390;-2.328;2023-04-05T11:55:48;10.60;99.90
24682;DHT22;12802;53.390;-2.328;2023-04-05T11:58:23;10.60;99.90
24682;DHT22;12802;53.390;-2.328;2023-04-05T12:01:16;10.60;99.90
24682;DHT22;12802;53.390;-2.328;2023-04-05T12:03:42;10.60;99.90
24682;DHT22;12802;53.390;-2.328;2023-04-05T12:06:08;10.70;99.90
24682;DHT22;12802;53.390;-2.328;2023-04-05T12:08:44;10.70;99.90
24682;DHT22;12802;53.390;-2.328;2023-04-05T12:11:27;10.70;99.90
24682;DHT22;12802;53.390;-2.328;2023-04-05T12:13:57;10.70;99.90
24682;DHT22;12802;53.390;-2.328;2023-04-05T12:16:23;10.70;99.90
24682;DHT22;12802;53.390;-2.328;2023-04-05T12:18:59;10.80;99.90
24682;DHT22;12802;53.390;-2.328;2023-04-05T12:21:26;10.80;99.90
24682;DHT22;12802;53.390;-2.328;2023-04-05T12:23:53;10.80;99.90
24682;DHT22;12802;53.390;-2.328;2023-04-05T12:26:19;10.80;99.90
24682;DHT22;12802;53.390;-2.328;2023-04-05T12:28:50;10.80;99.90
24682;DHT22;12802;53.390;-2.328;2023-04-05T12:31:33;10.70;99.90
24682;DHT22;12802;53.390;-2.328;2023-04-05T12:34:00;10.70;99.90
24682;DHT22;12802;53.390;-2.328;2023-04-05T12:36:26;10.70;99.90
24682;DHT22;12802;53.390;-2.328;2023-04-05T12:38:55;10.60;99.90
24682;DHT22;12802;53.390;-2.328;2023-04-05T12:41:30;10.50;99.90
24682;DHT22;12802;53.390;-2.328;2023-04-05T12:43:57;10.60;99.90
24682;DHT22;12802;53.390;-2.328;2023-04-05T12:47:01;10.50;99.90
24682;DHT22;12802;53.390;-2.328;2023-04-05T12:49:28;10.60;99.90
24682;DHT22;12802;53.390;-2.328;2023-04-05T12:51:59;10.60;99.90
24682;DHT22;12802;53.390;-2.328;2023-04-05T12:54:26;10.60;99.90
24682;DHT22;12802;53.390;-2.328;2023-04-05T12:56:52;10.60;99.90
24682;DHT22;12802;53.390;-2.328;2023-04-05T12:59:22;10.50;99.90
24682;DHT22;12802;53.390;-2.328;2023-04-05T13:01:48;10.50;99.90
24682;DHT22;12802;53.390;-2.328;2023-04-05T13:04:14;10.50;99.90
24682;DHT22;12802;53.390;-2.328;2023-04-05T13:06:40;10.50;99.90
24682;DHT22;12802;53.390;-2.328;2023-04-05T13:09:05;10.40;99.90
24682;DHT22;12802;53.390;-2.328;2023-04-05T13:11:31;10.40;99.90
24682;DHT22;12802;53.390;-2.328;2023-04-05T13:13:57;10.50;99.90
24682;DHT22;12802;53.390;-2.328;2023-04-05T13:16:22;10.50;99.90
24682;DHT22;12802;53.390;-2.328;2023-04-05T13:18:48;10.40;99.90
24682;DHT22;12802;53.390;-2.328;2023-04-05T13:21:14;10.50;99.90
24682;DHT22;12802;53.390;-2.328;2023-04-05T13:23:40;10.40;99.90
24682;DHT22;12802;53.390;-2.328;2023-04-05T13:26:06;10.40;99.90
24682;DHT22;12802;53.390;-2.328;2023-04-05T13:28:32;10.50;99.90
24682;DHT22;12802;53.390;-2.328;2023-04-05T13:30:59;10.40;99.90
24682;DHT22;12802;53.390;-2.328;2023-04-05T13:33:24;10.40;99.90
24682;DHT22;12802;53.390;-2.328;2023-04-05T13:35:50;10.40;99.90
24682;DHT22;12802;53.390;-2.328;2023-04-05T13:38:16;10.50;99.90
24682;DHT22;12802;53.390;-2.328;2023-04-05T13:40:42;10.40;99.90
24682;DHT22;12802;53.390;-2.328;2023-04-05T13:43:08;10.40;99.90
24682;DHT22;12802;53.390;-2.328;2023-04-05T13:45:33;10.40;99.90
24682;DHT22;12802;53.390;-2.328;2023-04-05T13:47:59;10.30;99.90
24682;DHT22;12802;53.390;-2.328;2023-04-05T13:50:28;10.40;99.90
24682;DHT22;12802;53.390;-2.328;2023-04-05T13:52:54;10.40;99.90
24682;DHT22;12802;53.390;-2.328;2023-04-05T13:55:19;10.40;99.90
24682;DHT22;12802;53.390;-2.328;2023-04-05T13:57:45;10.40;99.90
24682;DHT22;12802;53.390;-2.328;2023-04-05T14:00:12;10.30;99.90
24682;DHT22;12802;53.390;-2.328;2023-04-05T14:02:38;10.40;99.90
24682;DHT22;12802;53.390;-2.328;2023-04-05T14:05:04;10.40;99.90
24682;DHT22;12802;53.390;-2.328;2023-04-05T14:07:31;10.40;99.90
24682;DHT22;12802;53.390;-2.328;2023-04-05T14:09:56;10.30;99.90
24682;DHT22;12802;53.390;-2.328;2023-04-05T14:12:23;10.30;99.90
24682;DHT22;12802;53.390;-2.328;2023-04-05T14:14:49;10.30;99.90
24682;DHT22;12802;53.390;-2.328;2023-04-05T14:17:16;10.30;99.90
24682;DHT22;12802;53.390;-2.328;2023-04-05T14:19:41;10.30;99.90
24682;DHT22;12802;53.390;-2.328;2023-04-05T14:22:07;10.30;99.90
24682;DHT22;12802;53.390;-2.328;2023-04-05T14:24:33;10.30;99.90
24682;DHT22;12802;53.390;-2.328;2023-04-05T14:26:59;10.30;99.90
24682;DHT22;12802;53.390;-2.328;2023-04-05T14:29:25;10.30;99.90
24682;DHT22;12802;53.390;-2.328;2023-04-05T14:31:53;10.30;99.90
24682;DHT22;12802;53.390;-2.328;2023-04-05T14:34:19;10.30;99.90
24682;DHT22;12802;53.390;-2.328;2023-04-05T14:36:45;10.20;99.90
24682;DHT22;12802;53.390;-2.328;2023-04-05T14:39:11;10.20;99.90
24682;DHT22;12802;53.390;-2.328;2023-04-05T14:41:37;10.10;99.90
24682;DHT22;12802;53.390;-2.328;2023-04-05T14:44:03;10.20;99.90
24682;DHT22;12802;53.390;-2.328;2023-04-05T14:46:30;10.30;99.90
24682;DHT22;12802;53.390;-2.328;2023-04-05T14:48:55;10.30;99.90
24682;DHT22;12802;53.390;-2.328;2023-04-05T14:51:21;10.30;99.90
24682;DHT22;12802;53.390;-2.328;2023-04-05T14:53:47;10.40;99.90
24682;DHT22;12802;53.390;-2.328;2023-04-05T14:56:13;10.30;99.90
24682;DHT22;12802;53.390;-2.328;2023-04-05T14:58:38;10.30;99.90
24682;DHT22;12802;53.390;-2.328;2023-04-05T15:01:04;10.30;99.90
24682;DHT22;12802;53.390;-2.328;2023-04-05T15:03:30;10.30;99.90
24682;DHT22;12802;53.390;-2.328;2023-04-05T15:05:56;10.30;99.90
24682;DHT22;12802;53.390;-2.328;2023-04-05T15:08:22;10.30;99.90
24682;DHT22;12802;53.390;-2.328;2023-04-05T15:10:48;10.20;99.90
24682;DHT22;12802;53.390;-2.328;2023-04-05T15:13:14;10.20;99.90
24682;DHT22;12802;53.390;-2.328;2023-04-05T15:15:40;10.20;99.90
24682;DHT22;12802;53.390;-2.328;2023-04-05T15:18:06;10.30;99.90
24682;DHT22;12802;53.390;-2.328;2023-04-05T15:20:34;10.30;99.90
24682;DHT22;12802;53.390;-2.328;2023-04-05T15:23:00;10.40;99.90
24682;DHT22;12802;53.390;-2.328;2023-04-05T15:25:26;10.40;99.90
24682;DHT22;12802;53.390;-2.328;2023-04-05T15:27:52;10.30;99.90
24682;DHT22;12802;53.390;-2.328;2023-04-05T15:30:19;10.30;99.90
24682;DHT22;12802;53.390;-2.328;2023-04-05T15:32:46;10.30;99.90
24682;DHT22;12802;53.390;-2.328;2023-04-05T15:35:12;10.20;99.90
24682;DHT22;12802;53.390;-2.328;2023-04-05T15:37:37;10.30;99.90
24682;DHT22;12802;53.390;-2.328;2023-04-05T15:40:05;10.30;99.90
24682;DHT22;12802;53.390;-2.328;2023-04-05T15:42:33;10.30;99.90
24682;DHT22;12802;53.390;-2.328;2023-04-05T15:44:59;10.30;99.90
24682;DHT22;12802;53.390;-2.328;2023-04-05T15:47:24;10.30;99.90
24682;DHT22;12802;53.390;-2.328;2023-04-05T15:49:50;10.30;99.90
24682;DHT22;12802;53.390;-2.328;2023-04-05T15:52:16;10.30;99.90
24682;DHT22;12802;53.390;-2.328;2023-04-05T15:54:42;10.30;99.90
24682;DHT22;12802;53.390;-2.328;2023-04-05T15:57:09;10.30;99.90
24682;DHT22;12802;53.390;-2.328;2023-04-05T15:59:35;10.40;99.90
24682;DHT22;12802;53.390;-2.328;2023-04-05T16:02:02;10.40;99.90
24682;DHT22;12802;53.390;-2.328;2023-04-05T16:04:28;10.30;99.90